Terminal Aerodrome Forecast
Issued by NWS

Home | Current Version | Previous Version | Text Only | Print | Product List | Glossary On
Versions: 1 2 3 4 5 6 7 8 9 10 11 12 13 14 15 16
000
FTUS44 KHGX 270756 AAA
TAFUTS
TAF AMD
KUTS 270756Z 2708/2806 00000KT 5SM BR BKN001
      TEMPO 2708/2712 SCT005
     FM271200 02004KT P6SM SCT025 BKN250
     FM271600 04006KT P6SM VCSH SCT030 OVC250
     FM272000 06007KT P6SM VCTS SCT040CB BKN120 PROB30 2720/2801
      TSRA
     FM280100 05003KT P6SM OVC100=

USA.gov is the U.S. government's official web portal to all federal, state and local government web resources and services.